createdAt,value
2022-11-28T00:01:36.260Z,7.47
2022-11-28T00:04:05.460Z,7.33
2022-11-28T00:06:38.022Z,6.97
2022-11-28T00:09:07.022Z,9.03
2022-11-28T00:11:35.041Z,14.33
2022-11-28T00:14:03.014Z,12.70
2022-11-28T00:16:31.085Z,11.80
2022-11-28T00:19:01.091Z,9.43
2022-11-28T00:21:29.474Z,7.57
2022-11-28T00:24:00.097Z,7.90
2022-11-28T00:26:31.098Z,7.80
2022-11-28T00:29:00.027Z,7.90
2022-11-28T00:31:29.628Z,7.70
2022-11-28T00:33:58.005Z,7.77
2022-11-28T00:36:26.799Z,8.73
2022-11-28T00:38:54.941Z,9.07
2022-11-28T00:41:27.053Z,8.90
2022-11-28T00:43:55.074Z,8.00
2022-11-28T00:46:23.908Z,9.40
2022-11-28T00:48:52.083Z,8.47
2022-11-28T00:51:22.703Z,8.87
2022-11-28T00:53:53.122Z,9.43
2022-11-28T00:56:23.741Z,10.30
2022-11-28T00:58:53.274Z,11.43
2022-11-28T01:01:23.496Z,11.10
2022-11-28T01:03:53.551Z,13.17
2022-11-28T01:06:24.234Z,13.63
2022-11-28T01:08:52.944Z,14.33
2022-11-28T01:11:21.221Z,11.47
2022-11-28T01:13:49.620Z,9.67
2022-11-28T01:16:18.959Z,8.67
2022-11-28T01:18:46.997Z,8.67
2022-11-28T01:21:15.195Z,7.00
2022-11-28T01:23:43.222Z,7.40
2022-11-28T01:26:16.134Z,7.20
2022-11-28T01:28:44.169Z,7.77
2022-11-28T01:31:16.632Z,7.53
2022-11-28T01:33:46.430Z,7.57
2022-11-28T01:36:15.088Z,6.13
2022-11-28T01:38:43.253Z,6.50
2022-11-28T01:41:12.028Z,7.57
2022-11-28T01:43:58.751Z,8.10
2022-11-28T01:46:26.854Z,7.10
2022-11-28T01:49:00.613Z,6.93
2022-11-28T01:51:29.381Z,7.23
2022-11-28T01:53:57.820Z,7.43
2022-11-28T01:56:29.878Z,7.10
2022-11-28T01:59:03.563Z,8.07
2022-11-28T02:01:32.275Z,8.80
2022-11-28T02:04:01.733Z,8.00
2022-11-28T02:06:29.833Z,6.67
2022-11-28T02:08:57.741Z,7.57
2022-11-28T02:11:56.108Z,7.33
2022-11-28T02:14:40.590Z,8.47
2022-11-28T02:17:20.224Z,6.47
2022-11-28T02:20:25.359Z,7.03
2022-11-28T02:23:02.143Z,7.63
2022-11-28T02:25:55.519Z,7.17
2022-11-28T02:28:47.498Z,7.90
2022-11-28T02:31:34.552Z,8.87
2022-11-28T02:34:11.196Z,7.23
2022-11-28T02:36:47.230Z,7.87
2022-11-28T02:39:24.598Z,9.63
2022-11-28T02:41:59.113Z,9.43
2022-11-28T02:44:35.097Z,9.63
2022-11-28T02:47:09.885Z,8.60
2022-11-28T02:49:46.749Z,7.40
2022-11-28T02:52:19.022Z,8.17
2022-11-28T02:54:48.641Z,7.67
2022-11-28T02:57:16.633Z,9.03
2022-11-28T02:59:51.955Z,10.73
2022-11-28T03:02:28.995Z,8.70
2022-11-28T03:05:09.493Z,8.27
2022-11-28T03:07:53.986Z,8.27
2022-11-28T03:10:30.708Z,7.83
2022-11-28T03:13:08.947Z,7.33
2022-11-28T03:15:45.852Z,8.00
2022-11-28T03:18:21.523Z,8.77
2022-11-28T03:20:58.006Z,7.53
2022-11-28T03:23:34.145Z,8.20
2022-11-28T03:26:09.035Z,9.70
2022-11-28T03:28:43.771Z,9.43
2022-11-28T03:31:16.590Z,10.20
2022-11-28T03:33:51.941Z,8.60
2022-11-28T03:36:26.131Z,9.30
2022-11-28T03:39:00.861Z,9.30
2022-11-28T03:41:35.059Z,8.17
2022-11-28T03:44:08.097Z,7.17
2022-11-28T03:46:39.526Z,8.20
2022-11-28T03:49:09.977Z,8.97
2022-11-28T03:51:43.935Z,10.40
2022-11-28T03:54:15.786Z,8.33
2022-11-28T03:56:49.942Z,7.47
2022-11-28T03:59:21.615Z,7.53
2022-11-28T04:01:57.781Z,6.97
2022-11-28T04:04:31.633Z,6.97
2022-11-28T04:07:10.057Z,8.10
2022-11-28T04:09:44.828Z,7.77
2022-11-28T04:12:21.207Z,8.33
2022-11-28T04:14:54.832Z,7.77
2022-11-28T04:17:31.317Z,7.40
2022-11-28T04:20:05.440Z,7.77
2022-11-28T04:22:39.277Z,7.43
2022-11-28T04:25:10.776Z,8.50
2022-11-28T04:27:42.764Z,7.97
2022-11-28T04:30:13.289Z,7.97
2022-11-28T04:32:47.252Z,7.87
2022-11-28T04:35:20.737Z,8.33
2022-11-28T04:37:53.357Z,8.90
2022-11-28T04:40:24.775Z,9.37
2022-11-28T04:42:57.658Z,8.03
2022-11-28T04:45:31.234Z,7.93
2022-11-28T04:47:59.527Z,8.67
2022-11-28T04:50:38.726Z,9.93
2022-11-28T04:53:13.543Z,8.60
2022-11-28T04:55:47.697Z,8.50
2022-11-28T04:58:19.573Z,8.83
2022-11-28T05:00:50.822Z,7.70
2022-11-28T05:03:19.517Z,7.10
2022-11-28T05:05:49.962Z,7.40
2022-11-28T05:08:20.176Z,8.07
2022-11-28T05:10:48.619Z,7.70
2022-11-28T05:13:17.129Z,7.40
2022-11-28T05:15:45.115Z,8.17
2022-11-28T05:18:13.062Z,8.13
2022-11-28T05:20:41.724Z,7.40
2022-11-28T05:23:10.005Z,7.90
2022-11-28T05:25:40.832Z,7.63
2022-11-28T05:28:10.631Z,8.07
2022-11-28T05:30:38.791Z,7.80
2022-11-28T05:33:06.795Z,7.63
2022-11-28T05:35:34.807Z,7.80
2022-11-28T05:38:02.719Z,7.73
2022-11-28T05:40:30.672Z,7.23
2022-11-28T05:42:59.924Z,7.57
2022-11-28T05:45:27.875Z,8.30
2022-11-28T05:47:55.751Z,7.90
2022-11-28T05:50:23.658Z,7.27
2022-11-28T05:52:51.646Z,8.33
2022-11-28T05:55:19.614Z,7.47
2022-11-28T05:57:47.610Z,10.27
2022-11-28T06:00:18.167Z,8.80
2022-11-28T06:02:46.058Z,8.93
2022-11-28T06:05:35.104Z,9.73
2022-11-28T06:08:02.098Z,9.63
2022-11-28T06:10:30.151Z,7.37
2022-11-28T06:12:58.068Z,8.43
2022-11-28T06:15:27.338Z,9.27
2022-11-28T06:17:55.297Z,9.70
2022-11-28T06:20:23.149Z,8.83
2022-11-28T06:22:51.102Z,8.93
2022-11-28T06:25:19.216Z,9.10
2022-11-28T06:27:47.656Z,10.10
2022-11-28T06:30:15.968Z,7.73
2022-11-28T06:32:45.268Z,7.83
2022-11-28T06:35:13.287Z,7.80
2022-11-28T06:37:41.214Z,7.87
2022-11-28T06:40:09.908Z,8.80
2022-11-28T06:42:38.262Z,8.70
2022-11-28T06:45:07.146Z,8.73
2022-11-28T06:47:35.100Z,7.90
2022-11-28T06:50:04.663Z,7.40
2022-11-28T06:52:32.730Z,7.60
2022-11-28T06:55:00.642Z,7.67
2022-11-28T06:57:28.900Z,8.17
2022-11-28T06:59:56.856Z,8.43
2022-11-28T07:02:25.369Z,7.50
2022-11-28T07:04:53.408Z,7.20
2022-11-28T07:07:22.824Z,7.97
2022-11-28T07:09:52.115Z,7.67
2022-11-28T07:12:20.054Z,7.13
2022-11-28T07:14:48.082Z,7.80
2022-11-28T07:17:16.106Z,7.63
2022-11-28T07:19:44.289Z,8.00
2022-11-28T07:22:12.513Z,7.83
2022-11-28T07:24:41.777Z,8.30
2022-11-28T07:27:09.785Z,8.07
2022-11-28T07:29:37.796Z,7.60
2022-11-28T07:32:06.669Z,7.60
2022-11-28T07:34:35.261Z,7.27
2022-11-28T07:37:03.568Z,7.03
2022-11-28T07:39:31.530Z,7.83
2022-11-28T07:42:00.864Z,6.67
2022-11-28T07:44:28.852Z,7.07
2022-11-28T07:46:56.946Z,8.97
2022-11-28T07:49:24.834Z,7.80
2022-11-28T07:51:52.709Z,7.07
2022-11-28T07:54:20.681Z,7.27
2022-11-28T07:59:37.982Z,7.33
2022-11-28T08:02:06.161Z,7.77
2022-11-28T08:04:34.404Z,6.93
2022-11-28T08:07:02.353Z,7.67
2022-11-28T08:09:30.462Z,8.57
2022-11-28T08:11:58.797Z,7.30
2022-11-28T08:14:26.933Z,7.70
2022-11-28T08:16:56.192Z,8.87
2022-11-28T08:19:24.698Z,8.67
2022-11-28T08:21:52.957Z,7.83
2022-11-28T08:24:20.941Z,6.72
2022-11-28T08:26:48.863Z,6.97
2022-11-28T08:29:16.785Z,8.50
2022-11-28T08:31:44.758Z,8.07
2022-11-28T08:34:14.116Z,8.07
2022-11-28T08:36:43.461Z,7.93
2022-11-28T08:39:27.797Z,7.07
2022-11-28T08:41:58.872Z,7.87
2022-11-28T08:44:30.431Z,7.33
2022-11-28T08:46:58.639Z,7.37
2022-11-28T08:49:28.038Z,7.30
2022-11-28T08:51:55.968Z,7.70
2022-11-28T08:54:24.068Z,7.93
2022-11-28T08:56:52.009Z,7.47
2022-11-28T08:59:20.307Z,7.60
2022-11-28T09:01:48.339Z,7.13
2022-11-28T09:04:17.252Z,7.80
2022-11-28T09:06:46.880Z,7.43
2022-11-28T09:09:15.097Z,7.23
2022-11-28T09:11:43.623Z,7.27
2022-11-28T09:14:12.107Z,7.73
2022-11-28T09:16:41.163Z,7.83
2022-11-28T09:19:11.072Z,7.87
2022-11-28T09:21:39.251Z,8.80
2022-11-28T09:24:10.522Z,7.93
2022-11-28T09:26:38.547Z,8.20
2022-11-28T09:29:09.010Z,7.40
2022-11-28T09:31:36.976Z,8.13
2022-11-28T09:34:05.068Z,8.70
2022-11-28T09:36:33.879Z,8.30
2022-11-28T09:39:02.762Z,8.93
2022-11-28T09:41:42.398Z,7.53
2022-11-28T09:44:19.256Z,7.87
2022-11-28T09:46:49.438Z,8.60
2022-11-28T09:49:39.915Z,11.07
2022-11-28T09:52:22.466Z,8.73
2022-11-28T09:54:58.723Z,8.77
2022-11-28T09:57:35.637Z,8.07
2022-11-28T10:00:05.450Z,8.27
2022-11-28T10:02:38.897Z,7.40
2022-11-28T10:05:15.941Z,8.13
2022-11-28T10:07:59.474Z,11.37
2022-11-28T10:10:35.259Z,8.77
2022-11-28T10:13:14.805Z,7.17
2022-11-28T10:15:52.074Z,9.67
2022-11-28T10:18:34.869Z,8.53
2022-11-28T10:21:08.349Z,8.17
2022-11-28T10:23:40.249Z,8.03
2022-11-28T10:26:13.763Z,7.77
2022-11-28T10:28:44.830Z,7.40
2022-11-28T10:31:18.246Z,7.73
2022-11-28T10:33:54.304Z,8.13
2022-11-28T10:36:25.717Z,8.73
2022-11-28T10:38:53.689Z,8.20
2022-11-28T10:41:29.274Z,7.50
2022-11-28T10:44:04.440Z,7.47
2022-11-28T10:46:47.720Z,7.57
2022-11-28T10:49:32.286Z,8.33
2022-11-28T10:52:08.580Z,8.93
2022-11-28T10:55:01.774Z,8.53
2022-11-28T10:57:37.772Z,8.67
2022-11-28T11:00:13.510Z,8.00
2022-11-28T11:02:45.445Z,8.37
2022-11-28T11:05:15.711Z,6.93
2022-11-28T11:07:49.400Z,7.83
2022-11-28T11:10:19.496Z,7.23
2022-11-28T11:12:48.685Z,7.17
2022-11-28T11:15:24.407Z,6.47
2022-11-28T11:17:52.945Z,8.43
2022-11-28T11:20:36.842Z,7.30
2022-11-28T11:23:14.612Z,7.07
2022-11-28T11:25:55.467Z,7.47
2022-11-28T11:28:40.931Z,7.43
2022-11-28T11:31:18.386Z,7.67
2022-11-28T11:33:46.865Z,7.13
2022-11-28T11:36:27.207Z,7.83
2022-11-28T11:39:18.091Z,8.43
2022-11-28T11:41:47.953Z,8.13
2022-11-28T11:44:34.190Z,8.23
2022-11-28T11:47:05.591Z,7.07
2022-11-28T11:49:36.014Z,7.63
2022-11-28T11:52:08.261Z,8.47
2022-11-28T11:54:37.302Z,7.70
2022-11-28T11:57:31.325Z,7.50
2022-11-28T11:59:57.137Z,8.57
2022-11-28T12:02:32.704Z,7.73
2022-11-28T12:05:05.675Z,7.80
2022-11-28T12:07:40.347Z,7.33
2022-11-28T12:10:15.492Z,8.17
2022-11-28T12:12:43.510Z,7.63
2022-11-28T12:15:28.191Z,7.50
2022-11-28T12:18:13.406Z,7.27
2022-11-28T12:21:02.598Z,7.67
2022-11-28T12:23:57.032Z,7.37
2022-11-28T12:26:34.857Z,7.67
2022-11-28T12:29:16.155Z,7.80
2022-11-28T12:31:57.011Z,7.40
2022-11-28T12:34:36.197Z,7.37
2022-11-28T12:37:11.084Z,7.33
2022-11-28T12:39:51.744Z,7.47
2022-11-28T12:42:43.829Z,7.07
2022-11-28T12:45:33.683Z,6.50
2022-11-28T12:48:13.447Z,7.40
2022-11-28T12:50:46.739Z,8.07
2022-11-28T12:53:40.929Z,7.47
2022-11-28T12:56:29.945Z,7.07
2022-11-28T12:59:04.482Z,7.23
2022-11-28T13:01:45.458Z,7.87
2022-11-28T13:04:30.452Z,7.77
2022-11-28T13:07:06.998Z,6.93
2022-11-28T13:09:38.365Z,6.33
2022-11-28T13:12:23.219Z,7.37
2022-11-28T13:14:55.406Z,7.00
2022-11-28T13:17:36.611Z,6.80
2022-11-28T13:20:14.875Z,8.33
2022-11-28T13:22:55.875Z,8.43
2022-11-28T13:25:32.304Z,7.93
2022-11-28T13:28:07.884Z,7.23
2022-11-28T13:30:43.159Z,9.27
2022-11-28T13:33:39.081Z,7.93
2022-11-28T13:38:35.147Z,7.90
2022-11-28T13:39:13.760Z,7.53
2022-11-28T13:44:44.404Z,6.83
2022-11-28T13:47:27.801Z,7.57
2022-11-28T13:50:28.867Z,8.67
2022-11-28T13:53:00.557Z,8.23
2022-11-28T13:55:46.730Z,7.97
2022-11-28T13:58:34.077Z,7.60
2022-11-28T14:01:10.129Z,7.60
2022-11-28T14:03:47.124Z,7.73
2022-11-28T14:06:18.087Z,7.77
2022-11-28T14:08:50.039Z,8.73
2022-11-28T14:11:59.725Z,7.63
2022-11-28T14:14:59.785Z,8.23
2022-11-28T14:17:44.678Z,7.87
2022-11-28T14:20:23.773Z,7.40
2022-11-28T14:23:08.342Z,7.57
2022-11-28T14:25:42.238Z,7.80
2022-11-28T14:28:22.011Z,8.67
2022-11-28T14:30:52.693Z,7.93
2022-11-28T14:33:24.806Z,7.83
2022-11-28T14:36:25.339Z,8.60
2022-11-28T14:39:12.988Z,8.40
2022-11-28T14:42:44.061Z,7.73
2022-11-28T14:45:39.093Z,7.70
2022-11-28T14:48:30.981Z,8.47
2022-11-28T14:51:02.123Z,7.13
2022-11-28T14:53:45.792Z,8.07
2022-11-28T14:56:29.202Z,7.77
2022-11-28T14:58:59.845Z,7.23
2022-11-28T15:01:49.558Z,8.00
2022-11-28T15:04:38.172Z,7.53
2022-11-28T15:07:23.436Z,8.30
2022-11-28T15:10:07.221Z,8.30
2022-11-28T15:12:47.518Z,9.23
2022-11-28T15:15:17.499Z,7.90
2022-11-28T15:17:51.438Z,8.20
2022-11-28T15:20:27.917Z,8.73
2022-11-28T15:22:55.911Z,7.37
2022-11-28T15:25:26.294Z,7.10
2022-11-28T15:27:55.457Z,7.67
2022-11-28T15:30:26.850Z,8.50
2022-11-28T15:32:58.254Z,7.27
2022-11-28T15:35:28.874Z,7.73
2022-11-28T15:37:59.114Z,7.90
2022-11-28T15:40:30.121Z,8.10
2022-11-28T15:42:59.680Z,7.70
2022-11-28T15:45:30.015Z,7.30
2022-11-28T15:47:58.882Z,7.67
2022-11-28T15:50:30.142Z,8.47
2022-11-28T15:52:59.554Z,7.77
2022-11-28T15:55:30.325Z,8.67
2022-11-28T15:58:12.032Z,7.70
2022-11-28T16:00:42.948Z,8.60
2022-11-28T16:03:16.699Z,8.43
2022-11-28T16:05:47.275Z,7.13
2022-11-28T16:08:23.469Z,7.67
2022-11-28T16:10:51.542Z,8.60
2022-11-28T16:13:24.874Z,9.10
2022-11-28T16:15:56.061Z,8.80
2022-11-28T16:18:26.610Z,8.83
2022-11-28T16:20:56.793Z,7.57
2022-11-28T16:23:30.181Z,8.10
2022-11-28T16:26:05.189Z,7.73
2022-11-28T16:28:36.337Z,7.47
2022-11-28T16:31:12.256Z,7.27
2022-11-28T16:33:41.894Z,7.80
2022-11-28T16:36:19.211Z,7.57
2022-11-28T16:38:48.296Z,7.03
2022-11-28T16:41:18.683Z,8.20
2022-11-28T16:43:50.528Z,7.90
2022-11-28T16:46:22.853Z,6.80
2022-11-28T16:48:55.212Z,8.73
2022-11-28T16:51:39.236Z,7.17
2022-11-28T16:54:29.251Z,7.77
2022-11-28T16:57:14.673Z,8.53
2022-11-28T16:59:43.761Z,7.80
2022-11-28T17:02:17.368Z,7.63
2022-11-28T17:04:46.336Z,7.32
2022-11-28T17:07:21.098Z,7.30
2022-11-28T17:09:50.105Z,7.87
2022-11-28T17:12:25.616Z,8.90
2022-11-28T17:14:54.223Z,8.53
2022-11-28T17:17:24.357Z,9.23
2022-11-28T17:19:52.712Z,7.50
2022-11-28T17:22:24.487Z,7.60
2022-11-28T17:24:56.072Z,8.57
2022-11-28T17:27:24.257Z,7.33
2022-11-28T17:29:52.196Z,7.80
2022-11-28T17:32:20.371Z,7.93
2022-11-28T17:34:48.216Z,7.57
2022-11-28T17:37:16.532Z,7.30
2022-11-28T17:40:05.968Z,8.90
2022-11-28T17:42:33.985Z,8.00
2022-11-28T17:45:09.193Z,7.97
2022-11-28T17:47:37.187Z,9.00
2022-11-28T17:50:05.984Z,8.07
2022-11-28T17:52:34.468Z,7.80
2022-11-28T17:55:27.889Z,8.27
2022-11-28T17:57:55.771Z,7.63
2022-11-28T18:00:24.154Z,7.67
2022-11-28T18:02:52.073Z,7.63
2022-11-28T18:05:19.912Z,7.10
2022-11-28T18:11:02.643Z,7.60
2022-11-28T18:13:30.572Z,7.70
2022-11-28T18:15:58.507Z,7.40
2022-11-28T18:18:26.502Z,7.17
2022-11-28T18:20:54.642Z,7.60
2022-11-28T18:23:22.705Z,7.37
2022-11-28T18:25:52.095Z,7.07
2022-11-28T18:28:21.057Z,7.60
2022-11-28T18:30:49.344Z,7.47
2022-11-28T18:33:17.811Z,7.73
2022-11-28T18:35:45.730Z,7.33
2022-11-28T18:38:13.710Z,6.90
2022-11-28T18:40:43.662Z,7.77
2022-11-28T18:43:13.083Z,7.47
2022-11-28T18:45:41.138Z,7.80
2022-11-28T18:48:12.340Z,7.33
2022-11-28T18:50:40.418Z,7.97
2022-11-28T18:53:11.434Z,7.67
2022-11-28T18:55:39.496Z,7.20
2022-11-28T18:58:07.443Z,7.43
2022-11-28T19:00:36.753Z,7.87
2022-11-28T19:03:06.949Z,7.77
2022-11-28T19:05:39.142Z,6.70
2022-11-28T19:08:07.354Z,7.37
2022-11-28T19:10:38.625Z,7.73
2022-11-28T19:13:09.121Z,7.77
2022-11-28T19:15:41.757Z,8.13
2022-11-28T19:18:10.108Z,7.77
2022-11-28T19:20:43.532Z,7.97
2022-11-28T19:23:11.554Z,7.63
2022-11-28T19:25:39.886Z,7.40
2022-11-28T19:28:08.080Z,7.60
2022-11-28T19:30:35.995Z,7.90
2022-11-28T19:33:05.474Z,7.97
2022-11-28T19:35:34.457Z,7.70
2022-11-28T19:38:02.559Z,7.03
2022-11-28T19:40:30.447Z,7.87
2022-11-28T19:42:58.449Z,8.10
2022-11-28T19:45:26.453Z,8.27
2022-11-28T19:47:54.497Z,8.10
2022-11-28T19:50:23.749Z,7.80
2022-11-28T19:52:51.708Z,7.70
2022-11-28T19:55:19.745Z,8.00
2022-11-28T19:57:47.762Z,8.13
2022-11-28T20:00:17.051Z,7.60
2022-11-28T20:02:45.111Z,7.43
2022-11-28T20:05:13.036Z,7.53
2022-11-28T20:07:42.528Z,8.20
2022-11-28T20:10:11.022Z,8.00
2022-11-28T20:12:38.957Z,7.77
2022-11-28T20:15:12.617Z,7.23
2022-11-28T20:17:45.262Z,7.70
2022-11-28T20:20:13.379Z,8.63
2022-11-28T20:22:42.802Z,8.07
2022-11-28T20:25:10.756Z,8.40
2022-11-28T20:27:38.699Z,7.93
2022-11-28T20:30:08.950Z,8.13
2022-11-28T20:32:36.924Z,7.80
2022-11-28T20:35:05.065Z,7.60
2022-11-28T20:37:32.976Z,6.93
2022-11-28T20:40:02.286Z,6.90
2022-11-28T20:42:30.252Z,7.50
2022-11-28T20:44:58.321Z,6.73
2022-11-28T20:47:26.268Z,7.50
2022-11-28T20:49:54.193Z,7.77
2022-11-28T20:52:22.167Z,6.90
2022-11-28T20:54:50.041Z,7.40
2022-11-28T20:57:21.637Z,7.43
2022-11-28T20:59:50.343Z,7.40
2022-11-28T21:02:18.299Z,7.03
2022-11-28T21:04:46.462Z,6.90
2022-11-28T21:07:14.490Z,7.63
2022-11-28T21:09:42.723Z,8.67
2022-11-28T21:12:10.974Z,7.73
2022-11-28T21:14:40.303Z,7.97
2022-11-28T21:17:08.679Z,8.17
2022-11-28T21:19:36.626Z,7.10
2022-11-28T21:22:04.561Z,7.53
2022-11-28T21:24:32.610Z,7.57
2022-11-28T21:27:00.543Z,6.77
2022-11-28T21:29:28.512Z,7.83
2022-11-28T21:31:57.890Z,7.77
2022-11-28T21:34:25.998Z,8.53
2022-11-28T21:36:55.357Z,8.70
2022-11-28T21:39:23.501Z,7.23
2022-11-28T21:41:52.064Z,6.93
2022-11-28T21:44:20.206Z,7.37
2022-11-28T21:46:48.153Z,7.23
2022-11-28T21:49:17.422Z,7.07
2022-11-28T21:51:45.469Z,7.57
2022-11-28T21:54:13.862Z,7.27
2022-11-28T21:56:41.972Z,6.77
2022-11-28T21:59:10.160Z,7.03
2022-11-28T22:01:38.067Z,7.40
2022-11-28T22:04:08.464Z,7.70
2022-11-28T22:06:37.781Z,7.70
2022-11-28T22:09:09.806Z,7.60
2022-11-28T22:11:39.176Z,6.93
2022-11-28T22:14:09.539Z,8.53
2022-11-28T22:16:37.463Z,7.87
2022-11-28T22:19:06.397Z,8.17
2022-11-28T22:21:55.487Z,7.47
2022-11-28T22:24:25.647Z,8.20
2022-11-28T22:26:54.465Z,8.00
2022-11-28T22:29:22.446Z,6.93
2022-11-28T22:31:50.493Z,7.93
2022-11-28T22:34:18.640Z,7.60
2022-11-28T22:36:46.535Z,7.90
2022-11-28T22:39:14.466Z,7.63
2022-11-28T22:41:43.957Z,8.40
2022-11-28T22:44:12.814Z,7.40
2022-11-28T22:46:40.732Z,7.67
2022-11-28T22:49:10.318Z,6.93
2022-11-28T22:51:38.249Z,6.87
2022-11-28T22:54:06.589Z,7.60
2022-11-28T22:56:35.281Z,7.23
2022-11-28T22:59:05.243Z,7.60
2022-11-28T23:01:34.475Z,7.53
2022-11-28T23:04:02.402Z,7.87
2022-11-28T23:06:32.721Z,6.87
2022-11-28T23:09:01.909Z,7.40
2022-11-28T23:11:32.792Z,8.33
2022-11-28T23:14:01.470Z,7.67
2022-11-28T23:16:32.322Z,7.83
2022-11-28T23:19:02.737Z,7.13
2022-11-28T23:21:33.085Z,7.17
2022-11-28T23:24:01.130Z,7.73
2022-11-28T23:26:30.748Z,7.90
2022-11-28T23:29:00.878Z,7.63
2022-11-28T23:31:32.406Z,7.90
2022-11-28T23:34:01.699Z,8.53
2022-11-28T23:36:33.780Z,8.13
2022-11-28T23:39:07.521Z,7.73
2022-11-28T23:41:35.400Z,7.93
2022-11-28T23:44:03.449Z,7.17
2022-11-28T23:46:33.312Z,7.73
2022-11-28T23:49:01.426Z,8.50
2022-11-28T23:51:29.472Z,6.93
2022-11-28T23:53:57.452Z,7.47
2022-11-28T23:56:28.639Z,7.33
2022-11-28T23:58:57.757Z,7.63
